Hauptseite
METAR-TAF:

METAR-TAF

Flughäfen :

Belgrad, Serbien

Nikola-Tesla-Flughafen Belgrad

Breite: 44-49N, Länge: 020-17E, Höhe: 96 m

Beobachtung

Neuester Wetterbericht von vor 26 Minuten, um 17:30 UTC
Wind 1 kt aus Südost
Temperatur 17°C
Luftfeuchtigkeit 82%
Luftdruck 1022 hPa
Sichtweite 10 km oder mehr
keine Wolken unter 1500 m und keine Kumulonimbus oder Gewitterwolken

METAR: LYBE 261730Z 13001KT CAVOK 17/14 Q1022 NOSIG

Zeit: 19:56 (17:56 UTC)

Prognose

Neuester Wetterbericht von vor 56 Minuten, um 17:00 UTC
Gültige Prognose vom 26 um 18 UTC bis 27 um 18 UTC
Wind 4 kt aus Ost/Südost
Sichtweite 10 km oder mehr
keine Wolken unter 1500 m und keine Kumulonimbus oder Gewitterwolken
Übergehend zu
vom 26 um 23 UTC bis 27 um 01 UTC
Wind 14 kt aus Südost

TAF: LYBE 261700Z 2618/2718 11004KT CAVOK TX24/2713Z TN14/2704Z BECMG 2623/2701 13014KT

Wetterbeobachtungen und Prognosen von mehr als 4000 Flughäfen (METAR und TAF Bericht).

Die verfügbaren Stationen werden durch gelbe und rote Markierungen auf der Karte dargestellt.

Führen Sie die Maus auf sie, um den Namen der Station zu sehen.

Darauf klicken, um die Beobachtung von Wetterbeobachtungen und Prognosen zu sehen.

Um die Karte zu ändern : klicken Sie auf den grünen Tasten mit einem schwarzen Kreuz Zum Vergrößern, auf den grünen Button mit einem Gedankenstrich zu verkleinern, oder auf die grünen Pfeile für benachbarte Karten.


METAR-TAF: